Time,TemperatureF,DewpointF,PressureIn,WindDirection,WindDirectionDegrees,WindSpeedMPH,WindSpeedGustMPH,Humidity,HourlyPrecipIn,Conditions,Clouds,dailyrainin,SoftwareType,DateUTC
2013-06-10 00:01:00,61.6,55.7,30.09,SW,234,0.0,5.0,81,0.00,,,0.00,Wunderground v.1.13,2013-06-10 04:01:00,
2013-06-10 00:31:00,60.9,56.4,30.09,SW,234,0.0,5.0,85,0.00,,,0.00,Wunderground v.1.13,2013-06-10 04:31:00,
2013-06-10 01:01:00,59.5,55.3,30.11,SW,234,0.0,5.0,86,0.00,,,0.00,Wunderground v.1.13,2013-06-10 05:01:00,
2013-06-10 01:31:00,58.1,54.9,30.11,SW,234,0.0,5.0,89,0.00,,,0.00,Wunderground v.1.13,2013-06-10 05:31:00,
2013-06-10 02:01:00,57.2,54.6,30.10,SW,234,0.0,5.0,91,0.00,,,0.00,Wunderground v.1.13,2013-06-10 06:01:00,
2013-06-10 02:31:00,56.7,54.4,30.09,SW,234,0.0,5.0,92,0.00,,,0.00,Wunderground v.1.13,2013-06-10 06:31:00,
2013-06-10 03:01:00,56.2,54.2,30.09,SW,234,0.0,5.0,93,0.00,,,0.00,Wunderground v.1.13,2013-06-10 07:01:00,
2013-06-10 03:31:00,55.7,53.7,30.09,SW,234,0.0,5.0,93,0.00,,,0.00,Wunderground v.1.13,2013-06-10 07:31:00,
2013-06-10 04:01:00,55.7,53.7,30.09,SW,234,0.0,5.0,93,0.00,,,0.00,Wunderground v.1.13,2013-06-10 08:01:00,
2013-06-10 04:31:00,55.3,53.3,30.09,SW,234,0.0,5.0,93,0.00,,,0.00,Wunderground v.1.13,2013-06-10 08:31:00,
2013-06-10 05:01:00,54.8,52.8,30.08,SW,234,0.0,5.0,93,0.00,,,0.00,Wunderground v.1.13,2013-06-10 09:01:00,
2013-06-10 05:31:00,54.7,52.7,30.08,SW,234,0.0,5.0,93,0.00,,,0.00,Wunderground v.1.13,2013-06-10 09:31:00,
2013-06-10 06:01:00,55.3,53.3,30.08,SW,234,0.0,5.0,93,0.00,,,0.00,Wunderground v.1.13,2013-06-10 10:01:00,
2013-06-10 06:31:00,56.2,54.2,30.08,SW,234,0.0,5.0,93,0.00,,,0.00,Wunderground v.1.13,2013-06-10 10:31:00,
2013-06-10 07:01:00,57.2,54.9,30.08,SW,234,0.0,5.0,92,0.00,,,0.00,Wunderground v.1.13,2013-06-10 11:01:00,
2013-06-10 07:31:00,59.5,56.3,30.08,SW,234,0.0,5.0,89,0.00,,,0.00,Wunderground v.1.13,2013-06-10 11:31:00,
2013-06-10 08:01:00,62.3,57.7,30.06,SW,234,0.0,5.0,85,0.00,,,0.00,Wunderground v.1.13,2013-06-10 12:01:00,
2013-06-10 08:31:00,64.7,57.7,30.06,SW,234,0.0,5.0,78,0.00,,,0.00,Wunderground v.1.13,2013-06-10 12:31:00,
2013-06-10 09:01:00,66.9,58.7,30.05,SW,234,1.0,1.0,75,0.00,,,0.00,Wunderground v.1.13,2013-06-10 13:01:00,
2013-06-10 09:31:00,69.9,58.9,30.04,SW,234,1.0,1.0,68,0.00,,,0.00,Wunderground v.1.13,2013-06-10 13:31:00,
2013-06-10 10:01:00,72.1,60.1,30.04,SW,234,0.0,5.0,66,0.00,,,0.00,Wunderground v.1.13,2013-06-10 14:01:00,
2013-06-10 10:31:00,72.5,60.1,30.03,SW,235,1.0,5.0,65,0.00,,,0.00,Wunderground v.1.13,2013-06-10 14:31:00,
2013-06-10 11:01:00,74.6,60.7,30.02,West,267,1.0,5.0,62,0.00,,,0.00,Wunderground v.1.13,2013-06-10 15:01:00,
2013-06-10 11:31:00,76.5,61.1,30.02,NW,311,2.0,5.0,59,0.00,,,0.00,Wunderground v.1.13,2013-06-10 15:31:00,
2013-06-10 12:01:00,74.4,61.0,30.00,North,5,3.0,3.0,63,0.00,,,0.00,Wunderground v.1.13,2013-06-10 16:01:00,
2013-06-10 12:31:00,74.6,61.6,30.00,North,11,3.0,5.0,64,0.00,,,0.00,Wunderground v.1.13,2013-06-10 16:31:00,
2013-06-10 13:01:00,76.5,61.6,29.98,North,11,1.0,1.0,60,0.00,,,0.00,Wunderground v.1.13,2013-06-10 17:01:00,
2013-06-10 13:31:00,78.3,51.3,29.97,North,11,1.0,5.0,39,0.00,,,0.00,Wunderground v.1.13,2013-06-10 17:31:00,
2013-06-10 14:01:00,78.5,50.8,29.96,East,95,2.0,2.0,38,0.00,,,0.00,Wunderground v.1.13,2013-06-10 18:01:00,
2013-06-10 14:31:00,78.6,50.9,29.95,South,190,2.0,2.0,38,0.00,,,0.00,Wunderground v.1.13,2013-06-10 18:31:00,
2013-06-10 15:01:00,79.4,50.9,29.94,South,190,3.0,3.0,37,0.00,,,0.00,Wunderground v.1.13,2013-06-10 19:01:00,
2013-06-10 15:31:00,78.5,54.8,29.93,South,174,0.0,5.0,44,0.00,,,0.00,Wunderground v.1.13,2013-06-10 19:31:00,
2013-06-10 16:01:00,77.9,53.0,29.92,South,175,1.0,5.0,42,0.00,,,0.00,Wunderground v.1.13,2013-06-10 20:01:00,
2013-06-10 16:31:00,77.2,54.8,29.91,South,173,1.0,1.0,46,0.00,,,0.00,Wunderground v.1.13,2013-06-10 20:31:00,
2013-06-10 17:01:00,76.0,54.9,29.90,South,174,2.0,5.0,48,0.00,,,0.00,Wunderground v.1.13,2013-06-10 21:01:00,
2013-06-10 17:31:00,75.1,55.2,29.89,South,184,3.0,3.0,50,0.00,,,0.00,Wunderground v.1.13,2013-06-10 21:31:00,
2013-06-10 18:01:00,74.2,55.4,29.88,South,184,3.0,3.0,52,0.00,,,0.00,Wunderground v.1.13,2013-06-10 22:01:00,
2013-06-10 18:31:00,73.2,55.0,29.88,South,184,3.0,3.0,53,0.00,,,0.00,Wunderground v.1.13,2013-06-10 22:31:00,
2013-06-10 19:01:00,71.6,57.0,29.88,South,183,3.0,5.0,60,0.00,,,0.00,Wunderground v.1.13,2013-06-10 23:01:00,
2013-06-10 19:31:00,69.9,57.6,29.88,South,185,2.0,2.0,65,0.00,,,0.00,Wunderground v.1.13,2013-06-10 23:31:00,
2013-06-10 20:01:00,67.9,59.3,29.88,South,185,0.0,5.0,74,0.00,,,0.00,Wunderground v.1.13,2013-06-11 00:01:00,
2013-06-10 20:31:00,66.3,60.3,29.87,South,185,0.0,5.0,81,0.00,,,0.00,Wunderground v.1.13,2013-06-11 00:31:00,
2013-06-10 21:01:00,65.2,60.6,29.86,South,185,0.0,5.0,85,0.00,,,0.00,Wunderground v.1.13,2013-06-11 01:01:00,
2013-06-10 21:31:00,63.9,60.3,29.85,South,185,0.0,5.0,88,0.00,,,0.00,Wunderground v.1.13,2013-06-11 01:31:00,
2013-06-10 22:01:00,63.4,60.1,29.85,South,185,0.0,5.0,89,0.00,,,0.00,Wunderground v.1.13,2013-06-11 02:01:00,
2013-06-10 22:31:00,62.9,59.6,29.84,South,185,0.0,5.0,89,0.00,,,0.00,Wunderground v.1.13,2013-06-11 02:31:00,
2013-06-10 23:01:00,62.3,59.3,29.83,South,185,0.0,5.0,90,0.00,,,0.00,Wunderground v.1.13,2013-06-11 03:01:00,
2013-06-10 23:31:00,62.0,59.6,29.82,South,185,0.0,5.0,92,0.00,,,0.01,Wunderground v.1.13,2013-06-11 03:31:00,